createdAt,value
2022-11-15T00:01:34.900Z,5.47
2022-11-15T00:04:02.857Z,2.73
2022-11-15T00:06:30.711Z,2.70
2022-11-15T00:09:00.116Z,1.07
2022-11-15T00:11:28.038Z,5.33
2022-11-15T00:13:57.180Z,0.90
2022-11-15T00:16:26.463Z,1.93
2022-11-15T00:18:54.309Z,1.00
2022-11-15T00:21:22.252Z,2.60
2022-11-15T00:23:50.234Z,2.13
2022-11-15T00:26:18.684Z,1.43
2022-11-15T00:28:46.756Z,1.47
2022-11-15T00:31:15.519Z,0.77
2022-11-15T00:33:46.627Z,1.47
2022-11-15T00:36:14.536Z,1.67
2022-11-15T00:38:42.432Z,0.93
2022-11-15T00:41:10.614Z,1.13
2022-11-15T00:43:38.522Z,1.80
2022-11-15T00:46:06.550Z,0.73
2022-11-15T00:48:34.432Z,0.47
2022-11-15T00:51:03.645Z,3.37
2022-11-15T00:53:31.844Z,1.27
2022-11-15T00:55:59.907Z,4.07
2022-11-15T00:58:27.780Z,0.80
2022-11-15T01:00:55.882Z,1.43
2022-11-15T01:03:23.804Z,2.63
2022-11-15T01:05:51.709Z,1.97
2022-11-15T01:08:20.958Z,1.90
2022-11-15T01:10:48.879Z,0.60
2022-11-15T01:13:16.723Z,0.70
2022-11-15T01:15:44.613Z,2.50
2022-11-15T01:18:12.543Z,3.10
2022-11-15T01:20:42.802Z,1.03
2022-11-15T01:23:10.748Z,1.03
2022-11-15T01:25:40.053Z,2.63
2022-11-15T01:28:08.014Z,0.87
2022-11-15T01:30:35.924Z,1.67
2022-11-15T01:33:03.799Z,0.80
2022-11-15T01:35:31.652Z,0.47
2022-11-15T01:37:59.536Z,0.37
2022-11-15T01:40:27.388Z,0.37
2022-11-15T01:42:56.688Z,0.50
2022-11-15T01:45:24.934Z,0.43
2022-11-15T01:47:53.704Z,0.60
2022-11-15T01:50:23.111Z,1.63
2022-11-15T01:52:51.057Z,0.60
2022-11-15T01:55:20.862Z,3.23
2022-11-15T01:57:49.633Z,0.50
2022-11-15T02:00:19.135Z,1.43
2022-11-15T02:02:47.139Z,3.97
2022-11-15T02:05:15.097Z,0.53
2022-11-15T02:07:42.971Z,1.03
2022-11-15T02:10:11.960Z,0.63
2022-11-15T02:12:39.844Z,0.73
2022-11-15T02:15:08.475Z,1.17
2022-11-15T02:17:48.264Z,1.43
2022-11-15T02:20:52.630Z,1.30
2022-11-15T02:24:00.428Z,0.43
2022-11-15T02:26:45.407Z,4.30
2022-11-15T02:29:14.326Z,0.50
2022-11-15T02:31:46.482Z,0.50
2022-11-15T02:34:18.121Z,0.67
2022-11-15T02:36:48.685Z,0.50
2022-11-15T02:39:20.196Z,1.60
2022-11-15T02:41:50.171Z,0.40
2022-11-15T02:44:18.847Z,0.40
2022-11-15T02:47:07.243Z,0.30
2022-11-15T02:49:35.982Z,0.40
2022-11-15T02:52:03.874Z,0.40
2022-11-15T02:54:32.472Z,0.63
2022-11-15T02:57:02.838Z,0.40
2022-11-15T02:59:46.028Z,0.50
2022-11-15T03:02:21.044Z,0.30
2022-11-15T03:04:53.356Z,7.70
2022-11-15T03:07:22.986Z,0.63
2022-11-15T03:09:52.860Z,0.43
2022-11-15T03:12:24.210Z,3.80
2022-11-15T03:14:53.807Z,0.93
2022-11-15T03:17:25.580Z,0.87
2022-11-15T03:19:54.742Z,1.70
2022-11-15T03:22:23.831Z,3.33
2022-11-15T03:24:54.264Z,0.40
2022-11-15T03:27:23.221Z,0.50
2022-11-15T03:29:52.939Z,0.73
2022-11-15T03:32:25.800Z,1.20
2022-11-15T03:34:55.476Z,0.30
2022-11-15T03:37:25.181Z,2.00
2022-11-15T03:39:53.128Z,0.50
2022-11-15T03:42:23.985Z,1.43
2022-11-15T03:44:54.933Z,0.40
2022-11-15T03:47:25.920Z,1.27
2022-11-15T03:49:55.354Z,0.97
2022-11-15T03:52:23.592Z,0.30
2022-11-15T03:54:55.772Z,0.43
2022-11-15T03:57:23.795Z,0.47
2022-11-15T03:59:51.659Z,1.27
2022-11-15T04:02:19.641Z,1.03
2022-11-15T04:04:48.863Z,0.30
2022-11-15T04:07:16.832Z,0.30
2022-11-15T04:09:58.912Z,0.53
2022-11-15T04:12:32.646Z,2.70
2022-11-15T04:15:10.990Z,0.70
2022-11-15T04:17:40.367Z,0.87
2022-11-15T04:20:29.217Z,1.50
2022-11-15T04:23:15.125Z,0.23
2022-11-15T04:25:43.305Z,0.30
2022-11-15T04:28:11.175Z,1.07
2022-11-15T04:30:39.091Z,1.90
2022-11-15T04:33:06.963Z,2.37
2022-11-15T04:35:36.245Z,2.90
2022-11-15T04:38:04.399Z,1.37
2022-11-15T04:40:32.351Z,1.73
2022-11-15T04:43:03.875Z,0.57
2022-11-15T04:45:32.183Z,4.13
2022-11-15T04:48:00.168Z,2.10
2022-11-15T04:50:28.061Z,12.10
2022-11-15T04:52:57.355Z,3.97
2022-11-15T04:55:25.235Z,2.80
2022-11-15T04:58:00.609Z,2.93
2022-11-15T05:00:28.714Z,2.10
2022-11-15T05:03:14.030Z,1.70
2022-11-15T05:05:41.957Z,1.70
2022-11-15T05:08:11.210Z,2.67
2022-11-15T05:10:39.168Z,2.93
2022-11-15T05:13:07.109Z,6.43
2022-11-15T05:15:35.070Z,8.60
2022-11-15T05:18:02.985Z,5.17
2022-11-15T05:20:30.847Z,6.57
2022-11-15T05:22:58.710Z,4.07
2022-11-15T05:25:28.091Z,4.67
2022-11-15T05:27:55.986Z,5.43
2022-11-15T05:30:23.880Z,3.50
2022-11-15T05:32:51.783Z,10.40
2022-11-15T05:35:22.405Z,9.50
2022-11-15T05:37:50.378Z,6.30
2022-11-15T05:40:18.479Z,9.97
2022-11-15T05:42:51.187Z,7.90
2022-11-15T05:45:23.901Z,9.93
2022-11-15T05:47:54.548Z,7.20
2022-11-15T05:50:22.393Z,11.07
2022-11-15T05:52:50.404Z,4.03
2022-11-15T05:55:18.322Z,12.43
2022-11-15T05:57:46.509Z,8.67
2022-11-15T06:00:16.402Z,5.37
2022-11-15T06:02:44.385Z,5.77
2022-11-15T06:05:12.430Z,13.27
2022-11-15T06:07:40.353Z,9.23
2022-11-15T06:10:09.678Z,5.90
2022-11-15T06:12:37.611Z,13.57
2022-11-15T06:15:06.052Z,19.10
2022-11-15T06:17:35.600Z,13.00
2022-11-15T06:20:04.437Z,15.30
2022-11-15T06:22:32.277Z,7.93
2022-11-15T06:25:05.216Z,10.27
2022-11-15T06:27:33.515Z,21.93
2022-11-15T06:30:01.370Z,13.90
2022-11-15T06:32:30.803Z,14.07
2022-11-15T06:35:00.095Z,17.57
2022-11-15T06:37:28.721Z,18.17
2022-11-15T06:39:56.639Z,17.43
2022-11-15T06:42:24.625Z,15.10
2022-11-15T06:44:52.640Z,19.43
2022-11-15T06:47:20.537Z,17.53
2022-11-15T06:49:48.508Z,11.23
2022-11-15T06:52:19.475Z,8.57
2022-11-15T06:54:47.400Z,16.70
2022-11-15T06:57:15.289Z,28.30
2022-11-15T06:59:43.226Z,12.80
2022-11-15T07:02:14.392Z,15.07
2022-11-15T07:04:42.269Z,11.83
2022-11-15T07:07:10.221Z,22.30
2022-11-15T07:09:39.558Z,14.60
2022-11-15T07:12:08.165Z,24.23
2022-11-15T07:14:36.362Z,22.00
2022-11-15T07:17:05.701Z,18.90
2022-11-15T07:19:33.642Z,18.20
2022-11-15T07:22:01.800Z,14.47
2022-11-15T07:24:29.721Z,8.67
2022-11-15T07:26:59.490Z,22.57
2022-11-15T07:29:27.726Z,15.33
2022-11-15T07:31:56.006Z,12.73
2022-11-15T07:34:24.731Z,20.53
2022-11-15T07:36:52.775Z,13.77
2022-11-15T07:39:21.057Z,11.33
2022-11-15T07:41:50.695Z,17.80
2022-11-15T07:44:20.032Z,16.00
2022-11-15T07:46:50.664Z,21.43
2022-11-15T07:49:18.648Z,13.23
2022-11-15T07:51:49.935Z,11.57
2022-11-15T07:54:17.979Z,23.20
2022-11-15T07:56:45.949Z,10.20
2022-11-15T07:59:13.888Z,27.20
2022-11-15T08:01:43.212Z,23.50
2022-11-15T08:04:12.544Z,17.80
2022-11-15T08:06:40.451Z,24.17
2022-11-15T08:09:08.322Z,20.33
2022-11-15T08:11:36.783Z,14.73
2022-11-15T08:14:04.768Z,14.27
2022-11-15T08:16:33.233Z,13.50
2022-11-15T08:19:02.476Z,10.50
2022-11-15T08:21:30.417Z,17.40
2022-11-15T08:23:58.687Z,13.03
2022-11-15T08:26:30.092Z,22.33
2022-11-15T08:28:57.976Z,14.63
2022-11-15T08:31:25.850Z,21.90
2022-11-15T08:33:53.767Z,19.47
2022-11-15T08:36:23.047Z,12.10
2022-11-15T08:38:50.964Z,13.77
2022-11-15T08:41:22.317Z,13.70
2022-11-15T08:43:50.461Z,13.10
2022-11-15T08:46:19.335Z,19.60
2022-11-15T08:48:47.332Z,13.93
2022-11-15T08:51:15.747Z,14.50
2022-11-15T08:53:45.148Z,10.13
2022-11-15T08:56:13.856Z,13.90
2022-11-15T08:58:41.882Z,6.50
2022-11-15T09:01:18.735Z,22.70
2022-11-15T09:03:47.287Z,21.03
2022-11-15T09:06:15.877Z,8.27
2022-11-15T09:08:47.793Z,12.20
2022-11-15T09:11:17.576Z,14.67
2022-11-15T09:13:45.519Z,16.47
2022-11-15T09:16:13.983Z,12.20
2022-11-15T09:18:41.879Z,9.07
2022-11-15T09:21:10.196Z,10.23
2022-11-15T09:23:38.362Z,12.27
2022-11-15T09:26:07.816Z,5.97
2022-11-15T09:28:36.479Z,9.73
2022-11-15T09:31:06.164Z,11.40
2022-11-15T09:33:34.727Z,19.33
2022-11-15T09:36:03.468Z,15.40
2022-11-15T09:38:31.562Z,9.33
2022-11-15T09:41:15.401Z,14.73
2022-11-15T09:43:46.446Z,22.17
2022-11-15T09:46:17.069Z,21.90
2022-11-15T09:48:53.917Z,17.77
2022-11-15T09:51:30.608Z,14.90
2022-11-15T09:56:52.118Z,13.50
2022-11-15T09:59:30.155Z,9.27
2022-11-15T10:02:01.785Z,7.57
2022-11-15T10:04:29.857Z,10.60
2022-11-15T10:07:03.147Z,11.70
2022-11-15T10:09:33.161Z,8.67
2022-11-15T10:12:02.469Z,5.17
2022-11-15T10:14:31.387Z,6.43
2022-11-15T10:17:19.795Z,21.10
2022-11-15T10:19:55.747Z,10.00
2022-11-15T10:22:35.817Z,7.63
2022-11-15T10:25:14.820Z,7.03
2022-11-15T10:27:44.367Z,9.17
2022-11-15T10:30:16.062Z,9.10
2022-11-15T10:32:44.829Z,11.80
2022-11-15T10:35:22.744Z,18.23
2022-11-15T10:37:50.640Z,15.20
2022-11-15T10:40:20.667Z,12.37
2022-11-15T10:42:49.988Z,14.00
2022-11-15T10:45:29.057Z,12.70
2022-11-15T10:48:17.299Z,5.20
2022-11-15T10:50:45.831Z,11.60
2022-11-15T10:53:16.329Z,14.77
2022-11-15T10:55:44.242Z,10.40
2022-11-15T10:58:22.820Z,12.70
2022-11-15T11:00:50.826Z,18.10
2022-11-15T11:03:31.474Z,6.70
2022-11-15T11:06:07.152Z,17.27
2022-11-15T11:08:35.129Z,10.13
2022-11-15T11:11:04.159Z,7.37
2022-11-15T11:13:34.719Z,6.43
2022-11-15T11:16:12.869Z,8.97
2022-11-15T11:18:43.955Z,10.80
2022-11-15T11:21:13.663Z,5.60
2022-11-15T11:23:47.503Z,7.30
2022-11-15T11:26:28.148Z,11.13
2022-11-15T11:29:01.857Z,6.33
2022-11-15T11:31:32.056Z,9.17
2022-11-15T11:34:05.294Z,7.83
2022-11-15T11:36:39.500Z,11.90
2022-11-15T11:39:18.844Z,12.13
2022-11-15T11:41:53.739Z,8.47
2022-11-15T11:44:30.829Z,9.50
2022-11-15T11:47:01.640Z,12.67
2022-11-15T11:49:33.164Z,9.00
2022-11-15T11:52:04.556Z,8.40
2022-11-15T11:54:36.956Z,8.90
2022-11-15T11:57:05.432Z,10.23
2022-11-15T11:59:38.787Z,10.00
2022-11-15T12:02:14.513Z,9.13
2022-11-15T12:04:42.917Z,7.13
2022-11-15T12:07:13.654Z,14.30
2022-11-15T12:09:43.663Z,12.80
2022-11-15T12:12:13.605Z,13.47
2022-11-15T12:14:45.680Z,17.70
2022-11-15T12:17:14.018Z,11.87
2022-11-15T12:19:43.737Z,11.00
2022-11-15T12:22:14.680Z,10.00
2022-11-15T12:24:44.031Z,11.03
2022-11-15T12:27:21.979Z,11.13
2022-11-15T12:29:56.670Z,9.80
2022-11-15T12:32:28.385Z,15.80
2022-11-15T12:34:56.262Z,7.77
2022-11-15T12:37:56.275Z,5.43
2022-11-15T12:40:31.265Z,12.70
2022-11-15T12:43:27.001Z,11.17
2022-11-15T12:45:56.302Z,9.00
2022-11-15T12:48:52.844Z,13.30
2022-11-15T12:51:22.850Z,8.03
2022-11-15T12:53:50.767Z,16.73
2022-11-15T12:56:25.436Z,14.67
2022-11-15T12:58:57.883Z,11.30
2022-11-15T13:02:02.350Z,14.27
2022-11-15T13:04:33.021Z,21.40
2022-11-15T13:07:02.378Z,15.20
2022-11-15T13:09:56.052Z,15.23
2022-11-15T13:12:58.396Z,20.37
2022-11-15T13:15:43.002Z,16.43
2022-11-15T13:18:41.438Z,16.23
2022-11-15T13:21:42.242Z,8.53
2022-11-15T13:24:14.866Z,14.47
2022-11-15T13:26:42.806Z,18.57
2022-11-15T13:29:18.375Z,14.73
2022-11-15T13:31:46.292Z,15.80
2022-11-15T13:37:29.499Z,16.97
2022-11-15T13:39:58.138Z,15.27
2022-11-15T13:42:28.770Z,17.60
2022-11-15T13:44:57.296Z,12.97
2022-11-15T13:47:27.822Z,10.27
2022-11-15T13:49:55.742Z,11.87
2022-11-15T13:52:25.135Z,16.13
2022-11-15T13:54:55.707Z,5.70
2022-11-15T13:57:24.127Z,5.53
2022-11-15T13:59:53.046Z,6.93
2022-11-15T14:02:21.818Z,8.10
2022-11-15T14:04:52.612Z,8.47
2022-11-15T14:07:21.975Z,11.87
2022-11-15T14:09:51.347Z,8.87
2022-11-15T14:12:31.401Z,9.13
2022-11-15T14:14:59.485Z,12.87
2022-11-15T14:17:45.686Z,4.80
2022-11-15T14:20:28.974Z,5.43
2022-11-15T14:22:57.554Z,8.67
2022-11-15T14:25:27.005Z,11.77
2022-11-15T14:28:18.151Z,6.97
2022-11-15T14:30:48.207Z,3.90
2022-11-15T14:33:24.410Z,8.73
2022-11-15T14:35:52.719Z,8.87
2022-11-15T14:38:20.684Z,8.50
2022-11-15T14:40:49.955Z,3.67
2022-11-15T14:43:17.876Z,2.97
2022-11-15T14:45:45.790Z,6.33
2022-11-15T14:48:13.698Z,6.67
2022-11-15T14:50:41.691Z,6.07
2022-11-15T14:53:13.949Z,5.17
2022-11-15T14:55:41.883Z,6.27
2022-11-15T14:58:11.172Z,6.53
2022-11-15T15:00:39.624Z,4.27
2022-11-15T15:03:07.895Z,4.87
2022-11-15T15:05:36.791Z,7.00
2022-11-15T15:08:04.780Z,6.33
2022-11-15T15:10:42.549Z,6.47
2022-11-15T15:13:17.783Z,2.73
2022-11-15T15:15:45.889Z,4.93
2022-11-15T15:18:14.281Z,4.57
2022-11-15T15:20:42.832Z,5.43
2022-11-15T15:23:16.096Z,1.40
2022-11-15T15:25:44.659Z,7.57
2022-11-15T15:28:13.977Z,8.83
2022-11-15T15:30:41.949Z,4.87
2022-11-15T15:33:09.823Z,4.97
2022-11-15T15:35:37.883Z,3.20
2022-11-15T15:38:06.063Z,9.13
2022-11-15T15:40:34.842Z,6.67
2022-11-15T15:43:02.819Z,3.30
2022-11-15T15:45:32.084Z,6.63
2022-11-15T15:47:59.981Z,10.10
2022-11-15T15:50:28.842Z,8.60
2022-11-15T15:52:57.489Z,5.90
2022-11-15T15:55:25.756Z,8.67
2022-11-15T15:57:53.769Z,7.53
2022-11-15T16:00:22.366Z,10.80
2022-11-15T16:02:51.711Z,12.67
2022-11-15T16:05:19.580Z,12.67
2022-11-15T16:07:48.601Z,11.87
2022-11-15T16:10:19.446Z,9.60
2022-11-15T16:12:48.417Z,14.33
2022-11-15T16:15:16.459Z,18.57
2022-11-15T16:17:46.682Z,12.73
2022-11-15T16:20:24.708Z,4.83
2022-11-15T16:22:52.607Z,4.43
2022-11-15T16:25:20.566Z,5.67
2022-11-15T16:27:48.434Z,4.60
2022-11-15T16:30:17.055Z,8.27
2022-11-15T16:32:45.070Z,12.47
2022-11-15T16:35:17.118Z,5.37
2022-11-15T16:37:47.275Z,8.80
2022-11-15T16:40:27.796Z,6.30
2022-11-15T16:42:56.586Z,6.00
2022-11-15T16:45:24.668Z,9.43
2022-11-15T16:47:52.756Z,8.53
2022-11-15T16:50:24.165Z,6.93
2022-11-15T16:52:57.769Z,12.50
2022-11-15T16:55:27.903Z,3.73
2022-11-15T16:57:58.039Z,7.27
2022-11-15T17:00:26.447Z,12.53
2022-11-15T17:02:54.406Z,10.20
2022-11-15T17:05:23.336Z,9.30
2022-11-15T17:07:54.290Z,13.03
2022-11-15T17:10:23.906Z,9.77
2022-11-15T17:12:52.070Z,8.53
2022-11-15T17:15:20.044Z,8.83
2022-11-15T17:17:52.679Z,13.17
2022-11-15T17:20:21.282Z,15.17
2022-11-15T17:22:49.198Z,12.50
2022-11-15T17:25:17.484Z,7.30
2022-11-15T17:27:47.234Z,22.77
2022-11-15T17:30:16.168Z,18.20
2022-11-15T17:32:48.142Z,14.27
2022-11-15T17:35:16.214Z,9.37
2022-11-15T17:37:45.416Z,11.23
2022-11-15T17:40:13.629Z,18.00
2022-11-15T17:42:45.568Z,15.23
2022-11-15T17:45:18.220Z,4.30
2022-11-15T17:47:46.117Z,13.73
2022-11-15T17:50:14.105Z,5.37
2022-11-15T17:52:42.003Z,12.13
2022-11-15T17:55:10.862Z,12.30
2022-11-15T17:57:38.833Z,8.63
2022-11-15T18:00:07.784Z,5.67
2022-11-15T18:02:37.104Z,7.00
2022-11-15T18:05:05.519Z,8.30
2022-11-15T18:07:33.495Z,9.20
2022-11-15T18:10:01.451Z,7.97
2022-11-15T18:12:29.497Z,8.10
2022-11-15T18:14:58.060Z,4.83
2022-11-15T18:17:25.962Z,7.13
2022-11-15T18:19:55.407Z,3.40
2022-11-15T18:22:23.522Z,4.43
2022-11-15T18:24:51.633Z,9.33
2022-11-15T18:27:19.557Z,16.23
2022-11-15T18:29:47.397Z,12.83
2022-11-15T18:32:17.712Z,11.00
2022-11-15T18:34:45.707Z,10.13
2022-11-15T18:37:15.515Z,11.50
2022-11-15T18:39:43.365Z,12.37
2022-11-15T18:42:11.301Z,7.97
2022-11-15T18:44:39.253Z,14.20
2022-11-15T18:47:07.169Z,9.70
2022-11-15T18:49:35.110Z,7.80
2022-11-15T18:52:03.021Z,9.00
2022-11-15T18:54:32.311Z,7.60
2022-11-15T18:57:00.314Z,10.13
2022-11-15T18:59:29.033Z,6.13
2022-11-15T19:01:57.121Z,8.77
2022-11-15T19:04:25.051Z,6.97
2022-11-15T19:06:53.590Z,10.23
2022-11-15T19:09:21.599Z,5.17
2022-11-15T19:11:52.194Z,5.63
2022-11-15T19:14:24.222Z,12.70
2022-11-15T19:16:53.046Z,9.63
2022-11-15T19:19:21.789Z,10.37
2022-11-15T19:21:49.826Z,13.00
2022-11-15T19:24:17.765Z,6.90
2022-11-15T19:26:46.059Z,11.53
2022-11-15T19:29:15.395Z,11.57
2022-11-15T19:31:43.355Z,8.53
2022-11-15T19:34:11.481Z,9.50
2022-11-15T19:36:40.422Z,6.93
2022-11-15T19:39:10.061Z,5.30
2022-11-15T19:41:39.660Z,10.77
2022-11-15T19:44:07.648Z,6.27
2022-11-15T19:46:38.255Z,2.97
2022-11-15T19:49:07.214Z,10.17
2022-11-15T19:51:35.224Z,10.50
2022-11-15T19:54:06.530Z,3.67
2022-11-15T19:56:35.028Z,8.80
2022-11-15T19:59:03.324Z,4.80
2022-11-15T20:01:32.213Z,2.93
2022-11-15T20:04:01.798Z,15.63
2022-11-15T20:06:30.961Z,25.47
2022-11-15T20:08:58.955Z,9.67
2022-11-15T20:11:27.016Z,7.00
2022-11-15T20:13:57.666Z,6.07
2022-11-15T20:16:25.632Z,14.07
2022-11-15T20:18:53.890Z,15.37
2022-11-15T20:21:23.217Z,6.40
2022-11-15T20:23:51.906Z,15.03
2022-11-15T20:26:19.911Z,13.43
2022-11-15T20:28:48.145Z,13.37
2022-11-15T20:31:16.333Z,17.87
2022-11-15T20:33:44.275Z,11.43
2022-11-15T20:36:13.314Z,12.10
2022-11-15T20:38:43.449Z,20.07
2022-11-15T20:41:11.565Z,16.07
2022-11-15T20:43:41.696Z,14.30
2022-11-15T20:46:09.641Z,8.47
2022-11-15T20:48:38.257Z,12.80
2022-11-15T20:51:07.311Z,17.47
2022-11-15T20:53:35.390Z,11.43
2022-11-15T20:56:09.594Z,8.90
2022-11-15T20:58:37.855Z,4.10
2022-11-15T21:01:11.336Z,5.53
2022-11-15T21:03:39.323Z,2.40
2022-11-15T21:06:08.136Z,4.07
2022-11-15T21:08:49.927Z,2.57
2022-11-15T21:11:36.582Z,5.37
2022-11-15T21:14:09.044Z,3.30
2022-11-15T21:16:37.644Z,2.70
2022-11-15T21:19:06.685Z,4.53
2022-11-15T21:21:34.665Z,2.83
2022-11-15T21:24:03.850Z,4.73
2022-11-15T21:26:33.217Z,4.53
2022-11-15T21:29:01.140Z,2.80
2022-11-15T21:31:29.133Z,4.50
2022-11-15T21:33:57.043Z,5.43
2022-11-15T21:36:25.559Z,4.03
2022-11-15T21:38:53.760Z,10.63
2022-11-15T21:41:21.825Z,6.50
2022-11-15T21:43:51.716Z,10.87
2022-11-15T21:46:19.624Z,7.63
2022-11-15T21:48:47.552Z,4.77
2022-11-15T21:51:15.427Z,6.00
2022-11-15T21:53:43.319Z,2.87
2022-11-15T21:56:11.953Z,3.83
2022-11-15T21:58:40.668Z,3.20
2022-11-15T22:01:28.964Z,3.37
2022-11-15T22:03:56.994Z,1.20
2022-11-15T22:06:25.281Z,2.93
2022-11-15T22:08:53.166Z,3.90
2022-11-15T22:11:21.113Z,1.70
2022-11-15T22:13:49.006Z,2.07
2022-11-15T22:16:18.273Z,3.63
2022-11-15T22:18:46.341Z,1.57
2022-11-15T22:21:15.067Z,4.17
2022-11-15T22:23:43.431Z,5.77
2022-11-15T22:26:12.418Z,3.43
2022-11-15T22:28:40.365Z,4.53
2022-11-15T22:31:08.415Z,3.20
2022-11-15T22:33:37.779Z,1.20
2022-11-15T22:36:06.312Z,4.83
2022-11-15T22:38:34.713Z,1.30
2022-11-15T22:41:02.867Z,1.47
2022-11-15T22:43:30.825Z,0.80
2022-11-15T22:45:59.392Z,0.73
2022-11-15T22:48:28.199Z,2.57
2022-11-15T22:50:57.523Z,6.40
2022-11-15T22:53:25.439Z,5.20
2022-11-15T22:55:53.489Z,3.90
2022-11-15T22:58:21.564Z,1.60
2022-11-15T23:00:50.809Z,3.00
2022-11-15T23:03:19.304Z,3.67
2022-11-15T23:05:47.371Z,1.43
2022-11-15T23:08:16.649Z,1.33
2022-11-15T23:11:02.175Z,4.40
2022-11-15T23:13:30.993Z,1.67
2022-11-15T23:16:20.952Z,3.33
2022-11-15T23:18:48.852Z,2.93
2022-11-15T23:21:37.647Z,7.17
2022-11-15T23:24:06.440Z,3.13
2022-11-15T23:26:34.312Z,18.37
2022-11-15T23:29:02.228Z,5.47
2022-11-15T23:31:48.930Z,5.53
2022-11-15T23:34:22.354Z,1.93
2022-11-15T23:36:50.453Z,2.60
2022-11-15T23:39:19.844Z,1.83
2022-11-15T23:41:47.699Z,5.20
2022-11-15T23:44:15.581Z,2.83
2022-11-15T23:46:43.476Z,2.50
2022-11-15T23:49:11.350Z,1.47
2022-11-15T23:51:39.314Z,4.90
2022-11-15T23:54:07.562Z,4.73
2022-11-15T23:56:36.799Z,6.70
2022-11-15T23:59:05.151Z,3.70
